createdAt,value
2019-04-14T00:02:47.365Z,10.53
2019-04-14T00:05:17.051Z,10.03
2019-04-14T00:07:47.179Z,10.00
2019-04-14T00:10:18.244Z,9.83
2019-04-14T00:12:49.135Z,10.47
2019-04-14T00:15:27.774Z,10.77
2019-04-14T00:17:50.382Z,9.10
2019-04-14T00:20:20.715Z,9.10
2019-04-14T00:22:51.237Z,9.63
2019-04-14T00:25:21.641Z,9.57
2019-04-14T00:27:52.170Z,10.20
2019-04-14T00:30:23.422Z,9.77
2019-04-14T00:32:55.791Z,8.93
2019-04-14T00:35:49.814Z,9.70
2019-04-14T00:38:32.325Z,9.27
2019-04-14T00:41:11.513Z,9.17
2019-04-14T00:43:59.217Z,8.97
2019-04-14T00:46:38.704Z,9.03
2019-04-14T00:49:09.203Z,8.03
2019-04-14T00:51:40.565Z,8.03
2019-04-14T00:54:10.970Z,8.17
2019-04-14T00:56:41.122Z,7.43
2019-04-14T00:59:11.417Z,7.03
2019-04-14T01:01:41.646Z,7.70
2019-04-14T01:04:12.241Z,7.27
2019-04-14T01:06:42.612Z,7.17
2019-04-14T01:09:15.252Z,7.47
2019-04-14T01:11:44.730Z,7.30
2019-04-14T01:14:14.729Z,6.47
2019-04-14T01:16:45.112Z,6.77
2019-04-14T01:19:15.551Z,6.60
2019-04-14T01:21:45.741Z,7.23
2019-04-14T01:24:16.355Z,7.20
2019-04-14T01:26:46.395Z,7.00
2019-04-14T01:29:16.598Z,7.17
2019-04-14T01:31:47.043Z,7.33
2019-04-14T01:34:17.310Z,7.00
2019-04-14T01:36:47.497Z,7.93
2019-04-14T01:39:17.644Z,8.10
2019-04-14T01:41:47.798Z,8.13
2019-04-14T01:44:17.752Z,7.83
2019-04-14T01:46:47.804Z,8.20
2019-04-14T01:49:17.949Z,7.27
2019-04-14T01:51:54.938Z,7.43
2019-04-14T01:54:47.256Z,8.27
2019-04-14T01:57:39.231Z,8.47
2019-04-14T02:00:29.481Z,8.07
2019-04-14T02:02:59.706Z,8.33
2019-04-14T02:05:29.989Z,9.00
2019-04-14T02:08:00.155Z,9.13
2019-04-14T02:10:30.499Z,9.30
2019-04-14T02:13:00.645Z,8.50
2019-04-14T02:15:30.904Z,8.83
2019-04-14T02:18:00.946Z,8.73
2019-04-14T02:20:31.780Z,8.60
2019-04-14T02:23:01.788Z,8.80
2019-04-14T02:25:31.765Z,8.43
2019-04-14T02:28:02.288Z,7.87
2019-04-14T02:30:38.753Z,7.87
2019-04-14T02:33:37.730Z,8.57
2019-04-14T02:41:04.355Z,7.70
2019-04-14T02:43:48.196Z,7.63
2019-04-14T02:46:02.457Z,8.90
2019-04-14T02:51:13.772Z,8.37
2019-04-14T02:53:42.765Z,7.73
2019-04-14T02:56:16.613Z,8.17
2019-04-14T02:58:48.350Z,8.33
2019-04-14T03:03:46.835Z,8.30
2019-04-14T03:06:16.168Z,8.87
2019-04-14T03:08:51.540Z,8.73
2019-04-14T03:11:17.451Z,8.23
2019-04-14T03:16:21.977Z,8.47
2019-04-14T03:19:20.543Z,9.30
2019-04-14T03:22:18.350Z,8.30
2019-04-14T03:24:41.985Z,8.03
2019-04-14T03:30:46.361Z,9.27
2019-04-14T03:33:21.142Z,8.47
2019-04-14T03:35:54.269Z,8.53
2019-04-14T03:37:50.760Z,9.00
2019-04-14T03:40:28.438Z,9.60
2019-04-14T03:43:03.939Z,9.03
2019-04-14T03:48:33.822Z,9.27
2019-04-14T03:50:36.911Z,8.63
2019-04-14T03:53:22.178Z,9.03
2019-04-14T03:55:41.592Z,9.10
2019-04-14T03:58:03.722Z,9.27
2019-04-14T04:00:33.525Z,9.10
2019-04-14T04:03:04.099Z,9.80
2019-04-14T04:05:34.514Z,9.70
2019-04-14T04:08:04.989Z,9.73
2019-04-14T04:10:36.217Z,9.97
2019-04-14T04:13:06.283Z,9.57
2019-04-14T04:15:36.464Z,11.07
2019-04-14T04:18:22.038Z,9.23
2019-04-14T04:21:20.547Z,10.97
2019-04-14T04:24:04.327Z,10.93
2019-04-14T04:26:53.896Z,10.73
2019-04-14T04:29:35.698Z,10.77
2019-04-14T04:32:25.419Z,10.07
2019-04-14T04:35:15.244Z,10.90
2019-04-14T04:38:05.611Z,10.33
2019-04-14T04:40:35.374Z,11.53
2019-04-14T04:43:05.909Z,10.53
2019-04-14T04:45:36.519Z,10.97
2019-04-14T04:48:06.705Z,10.60
2019-04-14T04:50:36.833Z,11.10
2019-04-14T04:53:09.078Z,11.37
2019-04-14T04:55:39.498Z,10.33
2019-04-14T04:58:10.063Z,10.87
2019-04-14T05:00:39.556Z,10.60
2019-04-14T05:03:09.972Z,11.10
2019-04-14T05:06:19.278Z,11.40
2019-04-14T05:08:52.352Z,9.93
2019-04-14T05:11:27.388Z,11.50
2019-04-14T05:13:57.891Z,10.63
2019-04-14T05:16:28.147Z,11.90
2019-04-14T05:19:11.457Z,12.27
2019-04-14T05:21:28.458Z,11.00
2019-04-14T05:23:58.144Z,11.90
2019-04-14T05:26:28.666Z,11.27
2019-04-14T05:28:59.131Z,11.87
2019-04-14T05:31:29.408Z,11.33
2019-04-14T05:33:59.969Z,10.97
2019-04-14T05:36:30.299Z,10.27
2019-04-14T05:39:00.290Z,11.87
2019-04-14T05:41:30.841Z,11.07
2019-04-14T05:44:02.026Z,10.97
2019-04-14T05:46:31.692Z,11.27
2019-04-14T05:49:02.102Z,10.93
2019-04-14T05:51:32.534Z,10.80
2019-04-14T05:54:03.309Z,10.83
2019-04-14T05:56:35.060Z,10.70
2019-04-14T05:59:04.416Z,10.73
2019-04-14T06:01:34.024Z,10.17
2019-04-14T06:04:03.261Z,11.27
2019-04-14T06:06:32.499Z,11.70
2019-04-14T06:09:01.844Z,11.73
2019-04-14T06:11:31.021Z,11.07
2019-04-14T06:14:00.315Z,11.90
2019-04-14T06:16:29.717Z,11.40
2019-04-14T06:18:58.876Z,11.37
2019-04-14T06:21:28.154Z,11.73
2019-04-14T06:23:57.412Z,10.67
2019-04-14T06:26:26.634Z,10.93
2019-04-14T06:28:55.906Z,11.03
2019-04-14T06:31:36.186Z,11.50
2019-04-14T06:34:19.152Z,9.57
2019-04-14T06:37:00.064Z,10.77
2019-04-14T06:39:32.762Z,10.87
2019-04-14T06:42:02.023Z,10.70
2019-04-14T06:44:31.264Z,10.57
2019-04-14T06:47:00.646Z,9.97
2019-04-14T06:49:29.906Z,10.33
2019-04-14T06:51:59.156Z,11.47
2019-04-14T06:54:28.446Z,11.10
2019-04-14T06:56:57.643Z,10.30
2019-04-14T06:59:26.911Z,10.37
2019-04-14T07:01:56.367Z,10.33
2019-04-14T07:04:25.645Z,11.27
2019-04-14T07:06:54.943Z,8.80
2019-04-14T07:09:24.325Z,10.93
2019-04-14T07:11:53.624Z,9.83
2019-04-14T07:14:23.265Z,10.53
2019-04-14T07:16:52.565Z,9.63
2019-04-14T07:19:21.817Z,9.67
2019-04-14T07:21:51.066Z,9.13
2019-04-14T07:24:20.336Z,9.53
2019-04-14T07:26:49.501Z,9.80
2019-04-14T07:29:18.741Z,9.50
2019-04-14T07:32:09.984Z,9.27
2019-04-14T07:35:00.907Z,9.87
2019-04-14T07:37:43.886Z,9.47
2019-04-14T07:40:29.586Z,9.57
2019-04-14T07:43:08.654Z,8.53
2019-04-14T07:46:05.115Z,9.20
2019-04-14T07:48:51.838Z,8.93
2019-04-14T07:51:52.102Z,9.23
2019-04-14T07:54:48.198Z,8.57
2019-04-14T07:57:34.803Z,9.90
2019-04-14T08:00:12.002Z,9.33
2019-04-14T08:03:00.205Z,9.60
2019-04-14T08:05:35.570Z,9.50
2019-04-14T08:08:05.185Z,9.20
2019-04-14T08:10:34.590Z,9.37
2019-04-14T08:13:03.913Z,9.43
2019-04-14T08:15:33.133Z,10.20
2019-04-14T08:18:02.432Z,9.57
2019-04-14T08:20:31.674Z,8.90
2019-04-14T08:23:00.902Z,8.90
2019-04-14T08:25:30.367Z,8.77
2019-04-14T08:27:59.618Z,9.60
2019-04-14T08:30:29.632Z,10.10
2019-04-14T08:32:59.086Z,8.63
2019-04-14T08:35:28.834Z,8.73
2019-04-14T08:37:58.165Z,9.43
2019-04-14T08:40:27.475Z,9.23
2019-04-14T08:43:15.310Z,7.90
2019-04-14T08:45:52.017Z,8.73
2019-04-14T08:48:40.227Z,9.33
2019-04-14T08:51:22.888Z,8.93
2019-04-14T08:53:59.831Z,8.73
2019-04-14T08:56:38.383Z,9.07
2019-04-14T08:59:20.554Z,7.40
2019-04-14T09:02:07.351Z,8.20
2019-04-14T09:04:45.279Z,8.97
2019-04-14T09:07:39.800Z,8.80
2019-04-14T09:10:14.075Z,8.60
2019-04-14T09:12:44.685Z,8.77
2019-04-14T09:15:13.973Z,9.03
2019-04-14T09:17:43.247Z,8.30
2019-04-14T09:20:13.566Z,7.97
2019-04-14T09:22:42.810Z,8.00
2019-04-14T09:25:12.062Z,8.03
2019-04-14T09:27:41.355Z,8.43
2019-04-14T09:30:10.979Z,7.37
2019-04-14T09:32:40.234Z,9.23
2019-04-14T09:35:09.716Z,8.17
2019-04-14T09:37:39.019Z,7.47
2019-04-14T09:40:08.455Z,7.50
2019-04-14T09:42:37.742Z,7.13
2019-04-14T09:45:07.030Z,7.77
2019-04-14T09:47:36.373Z,7.97
2019-04-14T09:50:07.821Z,7.53
2019-04-14T09:52:37.054Z,8.47
2019-04-14T09:55:08.543Z,8.20
2019-04-14T09:57:37.834Z,7.93
2019-04-14T10:00:09.094Z,7.57
2019-04-14T10:02:38.466Z,8.57
2019-04-14T10:05:08.086Z,6.57
2019-04-14T10:07:37.422Z,8.03
2019-04-14T10:10:07.804Z,7.87
2019-04-14T10:12:37.200Z,7.53
2019-04-14T10:15:07.474Z,6.80
2019-04-14T10:17:36.749Z,7.70
2019-04-14T10:20:06.561Z,7.57
2019-04-14T10:22:35.809Z,7.33
2019-04-14T10:25:05.528Z,7.40
2019-04-14T10:27:34.846Z,6.87
2019-04-14T10:30:04.693Z,6.73
2019-04-14T10:32:33.956Z,7.47
2019-04-14T10:35:03.226Z,7.67
2019-04-14T10:37:32.450Z,7.70
2019-04-14T10:40:01.859Z,7.30
2019-04-14T10:42:31.172Z,6.70
2019-04-14T10:45:00.522Z,6.93
2019-04-14T10:47:30.059Z,6.77
2019-04-14T10:49:59.497Z,6.77
2019-04-14T10:52:30.246Z,6.63
2019-04-14T10:54:59.736Z,6.73
2019-04-14T10:57:29.034Z,6.87
2019-04-14T10:59:58.323Z,5.90
2019-04-14T11:02:27.606Z,5.87
2019-04-14T11:04:56.899Z,6.73
2019-04-14T11:07:31.367Z,6.07
2019-04-14T11:10:00.606Z,5.93
2019-04-14T11:12:29.870Z,6.53
2019-04-14T11:14:59.140Z,6.27
2019-04-14T11:17:28.374Z,6.77
2019-04-14T11:19:57.634Z,7.10
2019-04-14T11:22:27.002Z,6.83
2019-04-14T11:24:56.270Z,6.53
2019-04-14T11:27:25.547Z,6.47
2019-04-14T11:29:54.803Z,6.00
2019-04-14T11:32:36.930Z,6.90
2019-04-14T11:35:34.622Z,6.33
2019-04-14T11:38:16.099Z,6.23
2019-04-14T11:40:50.921Z,6.03
2019-04-14T11:43:20.312Z,7.40
2019-04-14T11:45:49.551Z,5.83
2019-04-14T11:48:18.819Z,6.00
2019-04-14T11:50:48.193Z,6.97
2019-04-14T11:53:17.530Z,6.77
2019-04-14T11:55:46.847Z,7.10
2019-04-14T11:58:16.124Z,7.03
2019-04-14T12:01:03.059Z,7.00
2019-04-14T12:03:51.281Z,7.97
2019-04-14T12:06:48.507Z,5.87
2019-04-14T12:09:23.807Z,7.00
2019-04-14T12:11:53.093Z,7.60
2019-04-14T12:14:22.372Z,7.30
2019-04-14T12:16:51.731Z,7.40
2019-04-14T12:19:20.979Z,7.33
2019-04-14T12:21:50.406Z,7.40
2019-04-14T12:24:19.740Z,7.07
2019-04-14T12:26:49.110Z,7.70
2019-04-14T12:29:18.948Z,7.27
2019-04-14T12:31:48.770Z,7.57
2019-04-14T12:34:18.511Z,7.93
2019-04-14T12:36:48.227Z,7.77
2019-04-14T12:39:23.319Z,7.50
2019-04-14T12:42:19.729Z,8.27
2019-04-14T12:45:06.596Z,7.60
2019-04-14T12:48:03.652Z,7.77
2019-04-14T12:50:40.196Z,7.83
2019-04-14T12:53:09.550Z,7.93
2019-04-14T12:55:38.803Z,7.57
2019-04-14T12:58:11.156Z,7.60
2019-04-14T13:00:43.780Z,7.43
2019-04-14T13:03:13.073Z,7.40
2019-04-14T13:05:42.658Z,7.60
2019-04-14T13:08:12.045Z,7.10
2019-04-14T13:10:41.282Z,8.63
2019-04-14T13:13:11.210Z,7.60
2019-04-14T13:15:40.891Z,7.57
2019-04-14T13:18:10.465Z,7.30
2019-04-14T13:20:39.988Z,7.23
2019-04-14T13:23:09.341Z,7.80
2019-04-14T13:25:38.700Z,7.17
2019-04-14T13:28:08.134Z,7.20
2019-04-14T13:30:40.635Z,7.70
2019-04-14T13:33:10.107Z,7.77
2019-04-14T13:35:39.374Z,7.83
2019-04-14T13:38:08.958Z,6.73
2019-04-14T13:40:38.385Z,7.67
2019-04-14T13:43:07.639Z,8.00
2019-04-14T13:45:37.122Z,7.53
2019-04-14T13:48:06.436Z,7.67
2019-04-14T13:50:35.693Z,7.80
2019-04-14T13:53:07.965Z,9.00
2019-04-14T13:55:37.309Z,7.83
2019-04-14T13:58:06.670Z,7.20
2019-04-14T14:00:36.531Z,7.70
2019-04-14T14:03:05.867Z,7.40
2019-04-14T14:05:35.116Z,7.83
2019-04-14T14:08:04.583Z,8.00
2019-04-14T14:10:33.863Z,7.67
2019-04-14T14:13:20.623Z,7.47
2019-04-14T14:16:12.122Z,7.53
2019-04-14T14:18:55.715Z,7.80
2019-04-14T14:21:40.142Z,7.70
2019-04-14T14:24:31.364Z,7.43
2019-04-14T14:27:01.126Z,7.00
2019-04-14T14:29:30.415Z,7.77
2019-04-14T14:32:01.268Z,7.97
2019-04-14T14:34:30.467Z,7.60
2019-04-14T14:36:59.799Z,7.47
2019-04-14T14:39:29.212Z,8.03
2019-04-14T14:41:58.852Z,7.23
2019-04-14T14:44:34.771Z,6.77
2019-04-14T14:47:12.967Z,7.80
2019-04-14T14:50:06.149Z,7.30
2019-04-14T14:52:36.729Z,8.20
2019-04-14T14:55:07.095Z,7.43
2019-04-14T14:57:36.475Z,6.70
2019-04-14T15:00:11.490Z,7.30
2019-04-14T15:02:40.958Z,7.80
2019-04-14T15:05:10.603Z,7.17
2019-04-14T15:07:53.506Z,6.63
2019-04-14T15:10:22.778Z,7.43
2019-04-14T15:12:52.149Z,6.73
2019-04-14T15:15:21.559Z,7.23
2019-04-14T15:17:50.932Z,7.43
2019-04-14T15:20:20.366Z,6.20
2019-04-14T15:22:52.280Z,6.27
2019-04-14T15:25:20.774Z,6.80
2019-04-14T15:27:50.108Z,7.87
2019-04-14T15:30:21.429Z,7.17
2019-04-14T15:32:50.699Z,7.50
2019-04-14T15:35:19.994Z,7.53
2019-04-14T15:37:49.571Z,7.47
2019-04-14T15:40:19.510Z,6.40
2019-04-14T15:42:48.826Z,7.73
2019-04-14T15:45:18.182Z,7.30
2019-04-14T15:47:47.505Z,7.63
2019-04-14T15:50:16.949Z,6.60
2019-04-14T15:52:46.391Z,6.90
2019-04-14T15:55:17.881Z,7.40
2019-04-14T15:58:05.434Z,7.10
2019-04-14T16:01:05.912Z,7.30
2019-04-14T16:03:39.868Z,8.07
2019-04-14T16:06:31.043Z,6.63
2019-04-14T16:09:10.475Z,6.63
2019-04-14T16:12:00.288Z,7.30
2019-04-14T16:14:51.893Z,7.03
2019-04-14T16:17:40.203Z,6.70
2019-04-14T16:20:16.772Z,6.87
2019-04-14T16:22:46.145Z,7.00
2019-04-14T16:25:16.665Z,7.33
2019-04-14T16:28:14.028Z,7.40
2019-04-14T16:31:14.043Z,6.73
2019-04-14T16:34:01.269Z,7.47
2019-04-14T16:36:31.177Z,6.23
2019-04-14T16:39:00.580Z,8.17
2019-04-14T16:41:29.904Z,6.67
2019-04-14T16:43:59.214Z,8.03
2019-04-14T16:46:28.743Z,7.40
2019-04-14T16:48:58.103Z,7.87
2019-04-14T16:51:32.302Z,8.40
2019-04-14T16:54:06.728Z,7.90
2019-04-14T16:56:52.083Z,8.30
2019-04-14T16:59:21.411Z,7.47
2019-04-14T17:01:51.202Z,8.07
2019-04-14T17:04:20.697Z,7.20
2019-04-14T17:06:50.079Z,8.50
2019-04-14T17:09:19.369Z,8.53
2019-04-14T17:11:48.714Z,8.53
2019-04-14T17:14:36.917Z,8.00
2019-04-14T17:17:37.390Z,8.43
2019-04-14T17:20:14.975Z,8.20
2019-04-14T17:23:00.259Z,8.90
2019-04-14T17:25:47.369Z,7.87
2019-04-14T17:28:32.158Z,8.97
2019-04-14T17:31:12.074Z,7.90
2019-04-14T17:33:50.707Z,8.53
2019-04-14T17:36:41.694Z,7.93
2019-04-14T17:39:38.836Z,8.07
2019-04-14T17:42:25.630Z,8.00
2019-04-14T17:45:04.525Z,8.47
2019-04-14T17:47:46.075Z,7.57
2019-04-14T17:50:40.931Z,8.10
2019-04-14T17:53:32.464Z,7.87
2019-04-14T17:56:19.622Z,8.27
2019-04-14T17:59:14.146Z,7.43
2019-04-14T18:02:06.084Z,8.47
2019-04-14T18:05:01.796Z,7.73
2019-04-14T18:07:55.970Z,8.37
2019-04-14T18:10:35.547Z,7.33
2019-04-14T18:13:31.428Z,9.20
2019-04-14T18:16:20.056Z,7.87
2019-04-14T18:19:07.072Z,6.93
2019-04-14T18:21:36.325Z,8.23
2019-04-14T18:24:05.776Z,8.17
2019-04-14T18:26:35.668Z,7.60
2019-04-14T18:29:22.878Z,7.90
2019-04-14T18:32:04.400Z,7.57
2019-04-14T18:34:40.563Z,7.63
2019-04-14T18:37:32.552Z,7.73
2019-04-14T18:40:19.902Z,8.03
2019-04-14T18:43:01.202Z,7.97
2019-04-14T18:45:42.731Z,7.40
2019-04-14T18:48:30.259Z,7.20
2019-04-14T18:51:30.407Z,7.83
2019-04-14T18:54:15.217Z,8.00
2019-04-14T18:57:09.063Z,7.90
2019-04-14T18:59:45.028Z,7.93
2019-04-14T19:02:16.433Z,7.77
2019-04-14T19:04:46.347Z,7.50
2019-04-14T19:07:16.264Z,8.30
2019-04-14T19:09:46.177Z,7.87
2019-04-14T19:12:38.990Z,8.53
2019-04-14T19:15:26.263Z,8.27
2019-04-14T19:18:20.502Z,8.70
2019-04-14T19:20:54.955Z,8.00
2019-04-14T19:23:24.389Z,7.47
2019-04-14T19:25:53.772Z,7.50
2019-04-14T19:28:23.175Z,8.10
2019-04-14T19:30:52.518Z,7.23
2019-04-14T19:33:21.795Z,7.87
2019-04-14T19:35:51.241Z,7.10
2019-04-14T19:38:20.704Z,7.10
2019-04-14T19:40:50.439Z,7.63
2019-04-14T19:43:23.984Z,7.70
2019-04-14T19:45:50.763Z,7.73
2019-04-14T19:48:20.031Z,7.80
2019-04-14T19:50:49.379Z,7.53
2019-04-14T19:53:18.753Z,8.03
2019-04-14T19:55:48.046Z,8.57
2019-04-14T19:58:17.351Z,8.07
2019-04-14T20:00:47.202Z,7.70
2019-04-14T20:03:16.462Z,7.87
2019-04-14T20:05:45.850Z,8.13
2019-04-14T20:08:15.175Z,8.30
2019-04-14T20:10:44.497Z,8.47
2019-04-14T20:13:13.868Z,8.50
2019-04-14T20:16:01.011Z,8.50
2019-04-14T20:18:51.309Z,7.97
2019-04-14T20:21:51.602Z,8.37
2019-04-14T20:24:27.354Z,7.93
2019-04-14T20:27:00.499Z,8.10
2019-04-14T20:29:36.513Z,8.37
2019-04-14T20:32:14.470Z,8.47
2019-04-14T20:34:43.965Z,9.10
2019-04-14T20:37:13.412Z,8.37
2019-04-14T20:39:42.710Z,8.53
2019-04-14T20:42:12.654Z,8.80
2019-04-14T20:44:41.947Z,8.87
2019-04-14T20:47:11.670Z,8.70
2019-04-14T20:49:41.002Z,8.60
2019-04-14T20:52:10.554Z,9.23
2019-04-14T20:54:39.856Z,9.33
2019-04-14T20:57:09.487Z,9.30
2019-04-14T20:59:38.850Z,8.27
2019-04-14T21:02:25.935Z,8.43
2019-04-14T21:05:14.239Z,8.27
2019-04-14T21:08:02.557Z,8.30
2019-04-14T21:10:41.732Z,8.33
2019-04-14T21:13:22.168Z,8.20
2019-04-14T21:15:57.223Z,7.33
2019-04-14T21:18:48.102Z,7.20
2019-04-14T21:21:31.671Z,7.80
2019-04-14T21:24:25.689Z,7.67
2019-04-14T21:27:04.659Z,7.57
2019-04-14T21:29:49.496Z,7.97
2019-04-14T21:32:22.964Z,8.10
2019-04-14T21:35:11.146Z,7.37
2019-04-14T21:38:08.326Z,7.93
2019-04-14T21:40:56.516Z,8.67
2019-04-14T21:43:25.798Z,8.80
2019-04-14T21:45:55.166Z,7.57
2019-04-14T21:48:24.414Z,8.20
2019-04-14T21:50:53.729Z,8.17
2019-04-14T21:53:23.000Z,8.47
2019-04-14T21:55:52.377Z,9.17
2019-04-14T21:58:35.287Z,9.17
2019-04-14T22:01:49.079Z,9.00
2019-04-14T22:04:46.037Z,8.27
2019-04-14T22:07:35.863Z,8.93
2019-04-14T22:10:26.055Z,8.63
2019-04-14T22:12:55.311Z,8.97
2019-04-14T22:15:24.538Z,9.67
2019-04-14T22:17:53.810Z,9.60
2019-04-14T22:20:23.242Z,8.77
2019-04-14T22:22:52.582Z,9.37
2019-04-14T22:25:22.119Z,9.77
2019-04-14T22:27:51.417Z,8.73
2019-04-14T22:30:20.862Z,9.13
2019-04-14T22:32:50.134Z,8.80
2019-04-14T22:35:19.362Z,9.17
2019-04-14T22:37:48.683Z,9.40
2019-04-14T22:40:18.365Z,9.37
2019-04-14T22:42:47.637Z,9.20
2019-04-14T22:45:17.166Z,9.37
2019-04-14T22:47:46.409Z,8.70
2019-04-14T22:50:15.762Z,8.73
2019-04-14T22:52:45.199Z,9.17
2019-04-14T22:55:14.432Z,9.33
2019-04-14T22:57:43.668Z,8.80
2019-04-14T23:00:18.151Z,8.73
2019-04-14T23:03:04.848Z,9.43
2019-04-14T23:05:48.495Z,9.77
2019-04-14T23:08:24.964Z,9.03
2019-04-14T23:11:12.534Z,8.97
2019-04-14T23:14:06.670Z,9.43
2019-04-14T23:16:55.099Z,9.13
2019-04-14T23:19:33.719Z,8.63
2019-04-14T23:22:22.338Z,10.20
2019-04-14T23:24:51.619Z,8.70
2019-04-14T23:27:20.936Z,9.20
2019-04-14T23:29:50.229Z,8.97
2019-04-14T23:32:19.619Z,9.53
2019-04-14T23:34:48.875Z,10.33
2019-04-14T23:37:18.195Z,9.00
2019-04-14T23:39:47.423Z,9.57
2019-04-14T23:42:16.670Z,9.07
2019-04-14T23:44:45.987Z,9.90
2019-04-14T23:47:15.222Z,10.83
2019-04-14T23:49:44.467Z,10.00
2019-04-14T23:52:13.794Z,9.97
2019-04-14T23:54:43.057Z,10.27
2019-04-14T23:57:12.310Z,10.40
2019-04-14T23:59:41.596Z,10.97
